createdAt,value
2022-10-18T00:01:09.688Z,6.00
2022-10-18T00:03:38.118Z,5.10
2022-10-18T00:06:06.796Z,4.72
2022-10-18T00:08:36.792Z,5.50
2022-10-18T00:11:05.178Z,5.90
2022-10-18T00:13:33.721Z,5.05
2022-10-18T00:16:03.337Z,4.50
2022-10-18T00:18:31.385Z,4.20
2022-10-18T00:21:01.209Z,5.93
2022-10-18T00:23:30.952Z,4.15
2022-10-18T00:26:05.815Z,5.10
2022-10-18T00:28:34.362Z,5.55
2022-10-18T00:31:11.694Z,6.10
2022-10-18T00:33:39.396Z,4.65
2022-10-18T00:36:07.887Z,4.13
2022-10-18T00:38:36.084Z,4.65
2022-10-18T00:41:06.709Z,5.88
2022-10-18T00:43:51.577Z,4.00
2022-10-18T00:46:19.258Z,7.10
2022-10-18T00:48:47.578Z,5.93
2022-10-18T00:51:17.798Z,7.10
2022-10-18T00:53:46.116Z,4.82
2022-10-18T00:56:15.515Z,7.95
2022-10-18T00:58:44.220Z,4.28
2022-10-18T01:01:12.239Z,5.95
2022-10-18T01:06:09.650Z,6.50
2022-10-18T01:08:59.456Z,8.77
2022-10-18T01:11:59.621Z,7.72
2022-10-18T01:17:08.908Z,4.30
2022-10-18T01:20:12.995Z,5.00
2022-10-18T01:22:45.657Z,9.52
2022-10-18T01:25:30.887Z,6.15
2022-10-18T01:28:09.619Z,7.40
2022-10-18T01:30:47.285Z,6.53
2022-10-18T01:33:22.695Z,7.60
2022-10-18T01:35:54.782Z,6.65
2022-10-18T01:38:26.290Z,6.90
2022-10-18T01:40:55.983Z,4.82
2022-10-18T01:43:25.471Z,7.15
2022-10-18T01:45:56.662Z,7.07
2022-10-18T01:48:24.827Z,6.45
2022-10-18T01:53:39.648Z,6.93
2022-10-18T01:56:26.211Z,7.75
2022-10-18T01:59:10.390Z,4.97
2022-10-18T02:01:46.580Z,7.07
2022-10-18T02:04:24.054Z,5.28
2022-10-18T02:06:59.101Z,7.30
2022-10-18T02:09:35.567Z,6.90
2022-10-18T02:12:04.758Z,7.90
2022-10-18T02:14:34.404Z,5.28
2022-10-18T02:17:07.880Z,6.50
2022-10-18T02:19:40.527Z,6.18
2022-10-18T02:22:11.821Z,5.82
2022-10-18T02:24:43.433Z,7.82
2022-10-18T02:27:11.933Z,8.02
2022-10-18T02:29:41.584Z,7.22
2022-10-18T02:32:15.145Z,5.38
2022-10-18T02:34:45.348Z,8.32
2022-10-18T02:37:14.927Z,8.52
2022-10-18T02:39:46.493Z,7.75
2022-10-18T02:42:15.195Z,6.13
2022-10-18T02:44:43.239Z,6.35
2022-10-18T02:47:13.158Z,9.15
2022-10-18T02:49:40.863Z,6.03
2022-10-18T02:52:08.679Z,6.25
2022-10-18T02:54:37.210Z,6.03
2022-10-18T02:57:05.181Z,12.75
2022-10-18T02:59:32.885Z,10.57
2022-10-18T03:02:00.665Z,9.65
2022-10-18T03:04:29.780Z,9.02
2022-10-18T03:06:57.551Z,6.97
2022-10-18T03:09:25.568Z,7.72
2022-10-18T03:11:53.503Z,7.40
2022-10-18T03:14:21.215Z,7.43
2022-10-18T03:16:49.029Z,7.43
2022-10-18T03:19:16.948Z,8.82
2022-10-18T03:21:46.099Z,4.80
2022-10-18T03:24:13.896Z,5.45
2022-10-18T03:26:41.804Z,6.57
2022-10-18T03:29:11.125Z,5.00
2022-10-18T03:31:39.271Z,7.72
2022-10-18T03:36:35.051Z,8.25
2022-10-18T03:41:31.806Z,6.78
2022-10-18T03:43:59.617Z,6.53
2022-10-18T03:46:28.725Z,8.00
2022-10-18T03:48:56.620Z,5.65
2022-10-18T03:51:24.346Z,6.28
2022-10-18T03:53:52.123Z,6.57
2022-10-18T03:56:21.354Z,7.40
2022-10-18T03:58:49.034Z,8.63
2022-10-18T04:01:17.761Z,8.15
2022-10-18T04:03:45.651Z,6.93
2022-10-18T04:06:13.431Z,5.75
2022-10-18T04:08:41.205Z,6.70
2022-10-18T04:11:09.908Z,6.82
2022-10-18T04:13:39.364Z,5.70
2022-10-18T04:16:07.531Z,10.35
2022-10-18T04:21:03.163Z,4.97
2022-10-18T04:23:32.794Z,8.00
2022-10-18T04:26:04.259Z,6.80
2022-10-18T04:28:32.185Z,7.35
2022-10-18T04:31:01.554Z,8.15
2022-10-18T04:33:29.386Z,15.73
2022-10-18T04:35:57.279Z,6.45
2022-10-18T04:38:25.108Z,8.30
2022-10-18T04:40:52.945Z,14.05
2022-10-18T04:43:21.005Z,8.32
2022-10-18T04:45:51.171Z,8.80
2022-10-18T04:48:21.207Z,6.47
2022-10-18T04:50:49.795Z,6.15
2022-10-18T04:53:18.576Z,8.32
2022-10-18T04:55:46.803Z,6.43
2022-10-18T05:00:42.635Z,5.28
2022-10-18T05:03:11.791Z,6.75
2022-10-18T05:06:00.097Z,7.20
2022-10-18T05:08:29.726Z,7.50
2022-10-18T05:10:57.778Z,6.85
2022-10-18T05:15:53.620Z,5.57
2022-10-18T05:20:50.380Z,6.07
2022-10-18T05:23:18.375Z,5.47
2022-10-18T05:25:46.232Z,5.90
2022-10-18T05:28:38.205Z,4.43
2022-10-18T05:31:03.396Z,6.53
2022-10-18T05:33:31.292Z,3.78
2022-10-18T05:36:00.619Z,8.98
2022-10-18T05:38:31.041Z,5.57
2022-10-18T05:40:59.138Z,5.50
2022-10-18T05:43:28.961Z,3.97
2022-10-18T05:45:57.035Z,7.70
2022-10-18T05:48:25.095Z,5.57
2022-10-18T05:50:52.957Z,6.05
2022-10-18T05:53:36.165Z,5.82
2022-10-18T05:56:05.430Z,9.82
2022-10-18T05:58:33.419Z,8.85
2022-10-18T06:01:02.084Z,4.32
2022-10-18T06:03:30.948Z,4.63
2022-10-18T06:06:02.637Z,4.80
2022-10-18T06:08:31.971Z,5.03
2022-10-18T06:11:00.335Z,4.57
2022-10-18T06:13:31.125Z,6.55
2022-10-18T06:16:00.490Z,7.45
2022-10-18T06:18:29.885Z,4.97
2022-10-18T06:20:59.109Z,5.40
2022-10-18T06:23:27.467Z,5.25
2022-10-18T06:26:00.131Z,8.32
2022-10-18T06:28:28.687Z,6.47
2022-10-18T06:30:56.921Z,5.22
2022-10-18T06:35:57.175Z,6.30
2022-10-18T06:38:25.295Z,5.00
2022-10-18T06:43:22.578Z,3.60
2022-10-18T06:45:50.497Z,3.97
2022-10-18T06:50:53.431Z,7.00
2022-10-18T06:53:21.253Z,6.97
2022-10-18T06:55:49.068Z,4.88
2022-10-18T06:58:17.778Z,6.88
2022-10-18T07:00:47.016Z,8.88
2022-10-18T07:03:14.737Z,4.78
2022-10-18T07:05:42.609Z,3.80
2022-10-18T07:08:10.377Z,4.03
2022-10-18T07:10:38.209Z,3.88
2022-10-18T07:13:30.901Z,4.70
2022-10-18T07:16:03.895Z,4.00
2022-10-18T07:18:32.728Z,3.75
2022-10-18T07:21:02.863Z,8.45
2022-10-18T07:23:30.900Z,5.35
2022-10-18T07:25:58.865Z,6.07
2022-10-18T07:28:26.782Z,5.22
2022-10-18T07:30:54.951Z,10.27
2022-10-18T07:33:26.043Z,7.40
2022-10-18T07:35:53.925Z,4.20
2022-10-18T07:38:22.745Z,5.00
2022-10-18T07:40:57.169Z,4.80
2022-10-18T07:43:25.076Z,7.88
2022-10-18T07:45:53.670Z,7.50
2022-10-18T07:48:21.544Z,6.88
2022-10-18T07:50:50.752Z,6.93
2022-10-18T07:53:18.797Z,9.48
2022-10-18T07:55:46.880Z,7.28
2022-10-18T07:58:14.565Z,11.20
2022-10-18T08:00:42.344Z,8.00
2022-10-18T08:03:10.265Z,14.45
2022-10-18T08:05:37.990Z,10.55
2022-10-18T08:08:08.170Z,9.50
2022-10-18T08:10:36.624Z,14.07
2022-10-18T08:13:04.495Z,10.82
2022-10-18T08:15:32.267Z,14.88
2022-10-18T08:18:00.044Z,13.45
2022-10-18T08:20:31.107Z,12.88
2022-10-18T08:23:00.616Z,10.15
2022-10-18T08:25:31.850Z,11.05
2022-10-18T08:28:01.643Z,11.13
2022-10-18T08:30:31.046Z,12.43
2022-10-18T08:32:58.969Z,11.32
2022-10-18T08:35:26.813Z,12.10
2022-10-18T08:37:54.571Z,11.98
2022-10-18T08:40:22.331Z,18.60
2022-10-18T08:43:02.867Z,11.98
2022-10-18T08:45:41.867Z,14.30
2022-10-18T08:48:21.874Z,15.30
2022-10-18T08:50:52.079Z,12.90
2022-10-18T08:53:25.549Z,13.52
2022-10-18T08:55:59.224Z,6.72
2022-10-18T08:58:31.874Z,13.13
2022-10-18T09:01:08.673Z,14.85
2022-10-18T09:04:07.148Z,11.10
2022-10-18T09:06:43.266Z,9.45
2022-10-18T09:09:26.002Z,14.00
2022-10-18T09:12:03.795Z,16.60
2022-10-18T09:14:51.379Z,15.10
2022-10-18T09:17:29.268Z,16.08
2022-10-18T09:20:10.843Z,13.90
2022-10-18T09:22:50.168Z,15.52
2022-10-18T09:25:21.212Z,10.00
2022-10-18T09:27:55.584Z,13.10
2022-10-18T09:30:41.629Z,13.32
2022-10-18T09:33:24.822Z,11.50
2022-10-18T09:35:57.735Z,15.82
2022-10-18T09:38:30.914Z,13.00
2022-10-18T09:41:02.227Z,11.38
2022-10-18T09:43:44.823Z,9.80
2022-10-18T09:46:15.133Z,14.25
2022-10-18T09:48:47.845Z,16.67
2022-10-18T09:51:22.050Z,15.20
2022-10-18T09:54:05.493Z,14.15
2022-10-18T09:56:41.875Z,10.75
2022-10-18T09:59:29.562Z,11.85
2022-10-18T10:04:26.679Z,11.95
2022-10-18T10:06:56.761Z,13.18
2022-10-18T10:09:29.540Z,12.30
2022-10-18T10:11:58.490Z,10.18
2022-10-18T10:14:27.978Z,7.03
2022-10-18T10:16:59.667Z,9.68
2022-10-18T10:19:31.709Z,12.50
2022-10-18T10:22:03.878Z,4.88
2022-10-18T10:24:42.943Z,7.50
2022-10-18T10:27:19.341Z,11.40
2022-10-18T10:29:57.670Z,11.35
2022-10-18T10:32:33.845Z,9.07
2022-10-18T10:35:01.652Z,9.35
2022-10-18T10:37:35.615Z,18.23
2022-10-18T10:40:19.037Z,6.20
2022-10-18T10:43:33.015Z,12.13
2022-10-18T10:46:03.226Z,10.52
2022-10-18T10:48:40.492Z,9.10
2022-10-18T10:51:11.043Z,11.90
2022-10-18T10:53:47.111Z,8.02
2022-10-18T10:56:34.320Z,11.38
2022-10-18T10:59:11.134Z,8.18
2022-10-18T11:01:39.025Z,6.53
2022-10-18T11:04:28.371Z,13.18
2022-10-18T11:07:05.579Z,9.52
2022-10-18T11:09:43.017Z,8.30
2022-10-18T11:12:24.446Z,7.45
2022-10-18T11:15:00.500Z,7.60
2022-10-18T11:17:35.357Z,6.25
2022-10-18T11:20:24.078Z,11.80
2022-10-18T11:23:04.494Z,10.70
2022-10-18T11:26:02.145Z,8.02
2022-10-18T11:28:41.738Z,7.68
2022-10-18T11:31:17.386Z,10.85
2022-10-18T11:34:09.862Z,8.02
2022-10-18T11:37:02.297Z,9.50
2022-10-18T11:39:49.753Z,7.00
2022-10-18T11:42:24.272Z,8.48
2022-10-18T11:45:03.379Z,6.95
2022-10-18T11:47:40.007Z,9.32
2022-10-18T11:50:26.229Z,7.07
2022-10-18T11:53:07.309Z,9.43
2022-10-18T11:55:49.318Z,7.43
2022-10-18T11:58:37.830Z,5.57
2022-10-18T12:01:18.857Z,6.75
2022-10-18T12:03:58.637Z,8.15
2022-10-18T12:06:31.180Z,10.50
2022-10-18T12:09:03.203Z,5.65
2022-10-18T12:11:34.289Z,7.35
2022-10-18T12:14:05.728Z,8.27
2022-10-18T12:17:07.618Z,5.70
2022-10-18T12:19:28.901Z,7.40
2022-10-18T12:21:59.063Z,7.20
2022-10-18T12:24:31.319Z,5.28
2022-10-18T12:27:01.003Z,6.28
2022-10-18T12:29:34.002Z,5.55
2022-10-18T12:32:07.017Z,4.75
2022-10-18T12:34:41.967Z,8.82
2022-10-18T12:37:40.235Z,4.45
2022-10-18T12:40:18.521Z,5.93
2022-10-18T12:42:50.351Z,8.43
2022-10-18T12:45:28.702Z,7.13
2022-10-18T12:48:00.443Z,4.07
2022-10-18T12:50:34.774Z,5.78
2022-10-18T12:55:39.401Z,4.70
2022-10-18T12:58:28.320Z,5.82
2022-10-18T13:01:07.720Z,2.90
2022-10-18T13:04:02.372Z,5.18
2022-10-18T13:07:03.999Z,6.97
2022-10-18T13:09:35.287Z,6.40
2022-10-18T13:12:43.237Z,8.23
2022-10-18T13:15:41.336Z,5.05
2022-10-18T13:18:23.934Z,5.82
2022-10-18T13:21:03.081Z,6.60
2022-10-18T13:23:43.518Z,6.70
2022-10-18T13:26:25.889Z,5.50
2022-10-18T13:29:04.046Z,6.25
2022-10-18T13:31:41.420Z,3.10
2022-10-18T13:34:25.493Z,3.83
2022-10-18T13:36:59.107Z,2.80
2022-10-18T13:39:27.652Z,5.82
2022-10-18T13:42:21.908Z,5.88
2022-10-18T13:44:51.776Z,4.13
2022-10-18T13:47:40.423Z,6.00
2022-10-18T13:50:35.253Z,4.07
2022-10-18T13:53:31.634Z,7.78
2022-10-18T13:56:25.887Z,2.90
2022-10-18T13:59:15.100Z,4.82
2022-10-18T14:01:58.675Z,5.78
2022-10-18T14:04:43.520Z,6.38
2022-10-18T14:07:12.851Z,5.43
2022-10-18T14:09:48.909Z,4.15
2022-10-18T14:12:27.844Z,9.18
2022-10-18T14:15:03.102Z,4.00
2022-10-18T14:20:24.623Z,3.88
2022-10-18T14:22:58.799Z,5.68
2022-10-18T14:25:30.030Z,5.93
2022-10-18T14:28:12.362Z,8.60
2022-10-18T14:30:53.685Z,5.65
2022-10-18T14:33:34.151Z,7.72
2022-10-18T14:36:14.495Z,6.53
2022-10-18T14:38:50.038Z,7.65
2022-10-18T14:43:48.118Z,5.28
2022-10-18T14:46:28.115Z,5.65
2022-10-18T14:49:01.161Z,6.57
2022-10-18T14:51:33.849Z,6.85
2022-10-18T14:54:02.235Z,8.23
2022-10-18T14:56:31.965Z,5.57
2022-10-18T14:59:03.272Z,5.07
2022-10-18T15:01:33.271Z,5.75
2022-10-18T15:04:06.865Z,6.05
2022-10-18T15:06:34.900Z,5.00
2022-10-18T15:09:05.322Z,3.35
2022-10-18T15:11:33.965Z,5.30
2022-10-18T15:14:06.819Z,5.13
2022-10-18T15:16:35.509Z,3.65
2022-10-18T15:19:07.397Z,5.95
2022-10-18T15:21:36.486Z,3.90
2022-10-18T15:24:22.145Z,2.28
2022-10-18T15:26:51.599Z,3.92
2022-10-18T15:29:21.212Z,5.43
2022-10-18T15:31:50.413Z,6.80
2022-10-18T15:35:10.746Z,4.22
2022-10-18T15:37:43.156Z,5.65
2022-10-18T15:40:31.714Z,6.78
2022-10-18T15:43:01.499Z,4.65
2022-10-18T15:45:32.796Z,2.67
2022-10-18T15:48:19.510Z,4.40
2022-10-18T15:50:50.168Z,7.03
2022-10-18T15:53:32.311Z,2.25
2022-10-18T15:56:02.907Z,3.67
2022-10-18T15:58:39.086Z,4.45
2022-10-18T16:01:14.862Z,3.08
2022-10-18T16:03:43.626Z,7.00
2022-10-18T16:06:15.885Z,2.72
2022-10-18T16:11:17.743Z,5.05
2022-10-18T16:13:46.083Z,4.40
2022-10-18T16:16:17.371Z,5.95
2022-10-18T16:18:45.255Z,4.45
2022-10-18T16:21:21.946Z,2.83
2022-10-18T16:23:51.783Z,3.15
2022-10-18T16:26:20.960Z,4.60
2022-10-18T16:28:50.522Z,5.25
2022-10-18T16:31:20.867Z,5.95
2022-10-18T16:33:49.727Z,2.90
2022-10-18T16:36:19.200Z,3.83
2022-10-18T16:38:48.060Z,4.50
2022-10-18T16:41:17.733Z,5.55
2022-10-18T16:43:47.094Z,3.70
2022-10-18T16:46:18.060Z,3.88
2022-10-18T16:48:47.053Z,1.90
2022-10-18T16:51:16.427Z,5.00
2022-10-18T16:53:44.979Z,4.18
2022-10-18T16:56:15.857Z,2.67
2022-10-18T16:58:45.827Z,4.95
2022-10-18T17:01:14.985Z,3.15
2022-10-18T17:03:43.144Z,4.82
2022-10-18T17:06:16.182Z,2.67
2022-10-18T17:08:44.387Z,3.92
2022-10-18T17:11:13.484Z,2.70
2022-10-18T17:13:41.755Z,3.92
2022-10-18T17:16:23.135Z,2.60
2022-10-18T17:18:51.329Z,2.78
2022-10-18T17:23:48.551Z,5.35
2022-10-18T17:26:28.554Z,2.90
2022-10-18T17:28:59.733Z,5.45
2022-10-18T17:31:29.381Z,4.40
2022-10-18T17:33:58.728Z,3.67
2022-10-18T17:36:27.165Z,6.25
2022-10-18T17:38:56.235Z,3.05
2022-10-18T17:41:24.488Z,4.13
2022-10-18T17:43:52.291Z,4.28
2022-10-18T17:46:20.570Z,3.17
2022-10-18T17:48:50.190Z,4.60
2022-10-18T17:51:18.838Z,4.45
2022-10-18T17:53:47.801Z,3.20
2022-10-18T17:56:16.445Z,6.38
2022-10-18T17:58:45.292Z,2.85
2022-10-18T18:01:14.668Z,2.58
2022-10-18T18:03:43.725Z,5.78
2022-10-18T18:06:18.808Z,4.30
2022-10-18T18:08:47.124Z,3.50
2022-10-18T18:11:15.428Z,6.22
2022-10-18T18:13:43.424Z,2.17
2022-10-18T18:16:13.026Z,2.45
2022-10-18T18:18:40.843Z,3.03
2022-10-18T18:21:09.086Z,3.53
2022-10-18T18:23:38.654Z,2.60
2022-10-18T18:26:06.617Z,2.63
2022-10-18T18:28:36.147Z,4.47
2022-10-18T18:31:07.890Z,5.75
2022-10-18T18:33:36.084Z,3.03
2022-10-18T18:36:04.984Z,2.40
2022-10-18T18:38:33.887Z,4.03
2022-10-18T18:41:08.361Z,2.47
2022-10-18T18:43:36.655Z,4.50
2022-10-18T18:46:05.123Z,5.50
2022-10-18T18:48:34.503Z,3.75
2022-10-18T18:51:03.234Z,2.13
2022-10-18T18:53:31.678Z,3.22
2022-10-18T18:56:04.520Z,3.88
2022-10-18T18:58:35.482Z,2.22
2022-10-18T19:01:07.829Z,4.50
2022-10-18T19:03:36.131Z,3.08
2022-10-18T19:06:05.935Z,6.03
2022-10-18T19:08:36.477Z,4.63
2022-10-18T19:11:08.114Z,2.80
2022-10-18T19:13:38.646Z,3.15
2022-10-18T19:16:25.133Z,3.42
2022-10-18T19:18:59.020Z,5.30
2022-10-18T19:21:29.541Z,3.65
2022-10-18T19:23:57.780Z,3.08
2022-10-18T19:26:34.480Z,6.30
2022-10-18T19:29:09.074Z,4.30
2022-10-18T19:31:38.524Z,3.70
2022-10-18T19:34:08.729Z,3.85
2022-10-18T19:36:37.947Z,6.28
2022-10-18T19:39:07.666Z,3.45
2022-10-18T19:41:36.143Z,3.47
2022-10-18T19:44:05.835Z,2.25
2022-10-18T19:46:33.926Z,1.90
2022-10-18T19:49:01.962Z,3.08
2022-10-18T19:51:29.920Z,2.63
2022-10-18T19:53:58.399Z,2.30
2022-10-18T19:56:28.366Z,5.22
2022-10-18T19:58:57.325Z,3.28
2022-10-18T20:01:28.526Z,3.65
2022-10-18T20:03:56.970Z,2.05
2022-10-18T20:06:25.009Z,3.95
2022-10-18T20:08:53.389Z,3.25
2022-10-18T20:11:23.131Z,3.03
2022-10-18T20:13:51.581Z,2.15
2022-10-18T20:16:26.908Z,3.10
2022-10-18T20:18:58.510Z,4.95
2022-10-18T20:21:27.160Z,7.07
2022-10-18T20:23:55.300Z,4.28
2022-10-18T20:28:56.293Z,6.60
2022-10-18T20:31:25.923Z,5.32
2022-10-18T20:34:00.157Z,6.70
2022-10-18T20:36:29.158Z,4.80
2022-10-18T20:38:57.496Z,1.83
2022-10-18T20:41:27.794Z,4.50
2022-10-18T20:43:57.485Z,4.47
2022-10-18T20:46:25.762Z,5.50
2022-10-18T20:48:54.996Z,4.50
2022-10-18T20:51:24.914Z,7.38
2022-10-18T20:53:53.524Z,5.30
2022-10-18T20:56:22.871Z,5.15
2022-10-18T20:58:51.905Z,3.30
2022-10-18T21:01:22.062Z,5.28
2022-10-18T21:03:51.971Z,3.97
2022-10-18T21:06:21.563Z,4.55
2022-10-18T21:08:53.863Z,3.97
2022-10-18T21:11:21.676Z,3.70
2022-10-18T21:13:51.970Z,3.40
2022-10-18T21:16:20.203Z,3.78
2022-10-18T21:18:48.619Z,3.92
2022-10-18T21:21:18.527Z,4.47
2022-10-18T21:23:46.881Z,2.35
2022-10-18T21:26:17.898Z,5.97
2022-10-18T21:28:46.096Z,5.05
2022-10-18T21:31:17.016Z,7.80
2022-10-18T21:33:45.728Z,3.33
2022-10-18T21:36:14.553Z,5.55
2022-10-18T21:38:46.571Z,4.95
2022-10-18T21:41:17.695Z,8.45
2022-10-18T21:43:47.275Z,6.85
2022-10-18T21:46:16.903Z,7.68
2022-10-18T21:48:45.857Z,2.63
2022-10-18T21:51:15.695Z,3.30
2022-10-18T21:53:44.697Z,4.20
2022-10-18T21:56:14.584Z,7.45
2022-10-18T21:58:44.215Z,2.67
2022-10-18T22:01:14.103Z,3.15
2022-10-18T22:03:43.002Z,4.93
2022-10-18T22:06:14.141Z,3.78
2022-10-18T22:08:42.661Z,5.70
2022-10-18T22:11:11.150Z,3.60
2022-10-18T22:13:39.045Z,2.30
2022-10-18T22:16:10.374Z,6.70
2022-10-18T22:18:38.137Z,3.58
2022-10-18T22:21:08.904Z,2.88
2022-10-18T22:23:42.375Z,4.72
2022-10-18T22:26:12.267Z,3.20
2022-10-18T22:28:41.249Z,3.35
2022-10-18T22:31:16.564Z,6.47
2022-10-18T22:33:44.543Z,4.07
2022-10-18T22:36:13.265Z,2.58
2022-10-18T22:38:41.158Z,4.60
2022-10-18T22:41:10.247Z,3.05
2022-10-18T22:43:38.665Z,6.97
2022-10-18T22:46:08.916Z,4.25
2022-10-18T22:48:38.660Z,5.00
2022-10-18T22:51:06.915Z,5.22
2022-10-18T22:53:35.220Z,4.72
2022-10-18T22:56:04.498Z,4.03
2022-10-18T22:58:32.866Z,3.70
2022-10-18T23:01:02.883Z,4.85
2022-10-18T23:03:30.842Z,5.40
2022-10-18T23:06:00.498Z,3.38
2022-10-18T23:08:28.633Z,2.97
2022-10-18T23:13:26.213Z,5.68
2022-10-18T23:15:54.780Z,2.53
2022-10-18T23:18:22.597Z,4.60
2022-10-18T23:20:50.418Z,5.72
2022-10-18T23:23:19.698Z,4.18
2022-10-18T23:25:51.080Z,4.45
2022-10-18T23:28:19.790Z,2.65
2022-10-18T23:30:47.723Z,2.60
2022-10-18T23:33:15.520Z,3.28
2022-10-18T23:35:43.368Z,4.80
2022-10-18T23:38:11.210Z,5.00
2022-10-18T23:40:40.311Z,4.35
2022-10-18T23:43:08.105Z,2.88
2022-10-18T23:45:36.083Z,3.47
2022-10-18T23:48:03.989Z,3.35
2022-10-18T23:50:31.825Z,4.22
2022-10-18T23:52:59.606Z,5.10
2022-10-18T23:55:27.477Z,5.93
2022-10-18T23:57:56.686Z,5.05
